createdAt,value
2022-07-28T00:02:16.160Z,25.84
2022-07-28T00:04:49.149Z,25.82
2022-07-28T00:07:21.950Z,25.80
2022-07-28T00:10:00.310Z,25.77
2022-07-28T00:12:34.352Z,25.74
2022-07-28T00:15:10.319Z,25.74
2022-07-28T00:17:42.715Z,25.72
2022-07-28T00:20:15.741Z,25.68
2022-07-28T00:22:48.612Z,25.66
2022-07-28T00:25:22.017Z,25.67
2022-07-28T00:28:09.306Z,25.65
2022-07-28T00:30:44.193Z,25.60
2022-07-28T00:33:17.257Z,25.56
2022-07-28T00:35:49.893Z,25.54
2022-07-28T00:38:26.008Z,25.52
2022-07-28T00:41:13.875Z,25.50
2022-07-28T00:43:48.786Z,25.47
2022-07-28T00:46:27.395Z,25.43
2022-07-28T00:49:00.181Z,25.42
2022-07-28T00:51:33.114Z,25.39
2022-07-28T00:54:07.848Z,25.39
2022-07-28T00:56:41.208Z,25.38
2022-07-28T00:59:13.550Z,25.36
2022-07-28T01:01:46.385Z,25.35
2022-07-28T01:04:19.656Z,25.32
2022-07-28T01:07:09.530Z,25.32
2022-07-28T01:09:54.656Z,25.30
2022-07-28T01:12:39.574Z,25.29
2022-07-28T01:15:25.479Z,25.29
2022-07-28T01:18:05.039Z,25.28
2022-07-28T01:20:41.176Z,25.25
2022-07-28T01:23:45.967Z,25.24
2022-07-28T01:26:39.924Z,25.23
2022-07-28T01:29:27.683Z,25.24
2022-07-28T01:32:07.876Z,25.28
2022-07-28T01:34:50.444Z,25.30
2022-07-28T01:37:26.566Z,25.31
2022-07-28T01:40:01.768Z,25.29
2022-07-28T01:42:38.730Z,25.26
2022-07-28T01:45:13.839Z,25.22
2022-07-28T01:47:48.126Z,25.21
2022-07-28T01:50:24.346Z,25.22
2022-07-28T01:52:58.379Z,25.19
2022-07-28T01:55:31.773Z,25.14
2022-07-28T01:58:06.568Z,25.11
2022-07-28T02:00:40.317Z,25.06
2022-07-28T02:03:14.424Z,25.04
2022-07-28T02:05:53.054Z,25.05
2022-07-28T02:08:27.862Z,25.05
2022-07-28T02:11:21.033Z,25.05
2022-07-28T02:13:56.966Z,25.06
2022-07-28T02:16:31.790Z,25.06
2022-07-28T02:19:06.090Z,25.03
2022-07-28T02:21:40.830Z,25.05
2022-07-28T02:24:15.716Z,25.08
2022-07-28T02:26:55.047Z,25.07
2022-07-28T02:29:58.241Z,25.06
2022-07-28T02:32:28.682Z,25.05
2022-07-28T02:35:09.458Z,25.00
2022-07-28T02:37:51.405Z,24.97
2022-07-28T02:40:29.907Z,24.98
2022-07-28T02:43:03.328Z,24.97
2022-07-28T02:45:39.872Z,24.96
2022-07-28T02:48:26.093Z,24.97
2022-07-28T02:51:02.823Z,24.93
2022-07-28T02:53:36.220Z,24.89
2022-07-28T02:56:10.369Z,24.87
2022-07-28T02:58:43.880Z,24.83
2022-07-28T03:01:18.977Z,24.81
2022-07-28T03:03:55.173Z,24.77
2022-07-28T03:06:28.922Z,24.78
2022-07-28T03:09:02.309Z,24.81
2022-07-28T03:11:34.919Z,24.81
2022-07-28T03:14:07.294Z,24.80
2022-07-28T03:16:40.002Z,24.78
2022-07-28T03:19:12.418Z,24.77
2022-07-28T03:21:49.634Z,24.76
2022-07-28T03:24:24.663Z,24.76
2022-07-28T03:27:03.878Z,24.73
2022-07-28T03:29:38.211Z,24.73
2022-07-28T03:32:11.898Z,24.74
2022-07-28T03:34:44.455Z,24.71
2022-07-28T03:37:20.106Z,24.68
2022-07-28T03:39:56.311Z,24.66
2022-07-28T03:42:31.280Z,24.68
2022-07-28T03:45:03.917Z,24.71
2022-07-28T03:47:36.628Z,24.70
2022-07-28T03:50:10.304Z,24.71
2022-07-28T03:52:42.862Z,24.74
2022-07-28T03:55:16.716Z,24.77
2022-07-28T03:57:49.240Z,24.81
2022-07-28T04:00:22.712Z,24.79
2022-07-28T04:02:55.217Z,24.78
2022-07-28T04:05:27.547Z,24.76
2022-07-28T04:08:00.317Z,24.79
2022-07-28T04:10:33.065Z,24.85
2022-07-28T04:13:06.054Z,24.86
2022-07-28T04:15:38.602Z,24.89
2022-07-28T04:18:11.899Z,24.90
2022-07-28T04:20:44.534Z,24.93
2022-07-28T04:23:19.012Z,24.95
2022-07-28T04:25:51.909Z,24.99
2022-07-28T04:28:24.472Z,25.06
2022-07-28T04:30:57.173Z,25.09
2022-07-28T04:33:30.680Z,25.11
2022-07-28T04:36:03.562Z,25.13
2022-07-28T04:38:36.405Z,25.17
2022-07-28T04:41:09.081Z,25.26
2022-07-28T04:43:41.945Z,25.29
2022-07-28T04:46:15.384Z,25.31
2022-07-28T04:48:48.293Z,25.34
2022-07-28T04:51:21.776Z,25.37
2022-07-28T04:53:55.179Z,25.41
2022-07-28T04:56:46.353Z,25.45
2022-07-28T04:59:22.200Z,25.49
2022-07-28T05:01:57.746Z,25.51
2022-07-28T05:04:34.909Z,25.56
2022-07-28T05:07:12.531Z,25.55
2022-07-28T05:09:44.082Z,25.56
2022-07-28T05:16:23.834Z,25.58
2022-07-28T05:18:56.725Z,25.59
2022-07-28T05:21:29.362Z,25.63
2022-07-28T05:24:01.746Z,25.68
2022-07-28T05:26:37.810Z,25.73
2022-07-28T05:29:11.492Z,25.76
2022-07-28T05:31:43.907Z,25.81
2022-07-28T05:34:16.861Z,25.85
2022-07-28T05:36:50.488Z,25.90
2022-07-28T05:39:22.826Z,25.92
2022-07-28T05:41:55.218Z,25.96
2022-07-28T05:44:27.828Z,26.02
2022-07-28T05:47:00.224Z,26.12
2022-07-28T05:49:32.876Z,26.18
2022-07-28T05:52:05.415Z,26.25
2022-07-28T05:54:38.004Z,26.31
2022-07-28T05:57:10.579Z,26.42
2022-07-28T05:59:46.454Z,26.51
2022-07-28T06:02:18.930Z,26.54
2022-07-28T06:04:51.852Z,26.52
2022-07-28T06:07:43.813Z,26.48
2022-07-28T06:10:18.444Z,26.45
2022-07-28T06:12:52.588Z,26.42
2022-07-28T06:15:27.334Z,26.41
2022-07-28T06:17:59.606Z,26.43
2022-07-28T06:20:32.090Z,26.44
2022-07-28T06:23:05.737Z,26.47
2022-07-28T06:25:38.226Z,26.52
2022-07-28T06:28:10.567Z,26.57
2022-07-28T06:30:43.096Z,26.60
2022-07-28T06:33:17.363Z,26.62
2022-07-28T06:35:52.361Z,26.64
2022-07-28T06:38:25.719Z,26.66
2022-07-28T06:40:58.395Z,26.69
2022-07-28T06:43:31.054Z,26.72
2022-07-28T06:46:04.000Z,26.74
2022-07-28T06:48:39.495Z,26.75
2022-07-28T06:51:12.341Z,26.73
2022-07-28T06:53:44.636Z,26.71
2022-07-28T06:56:21.717Z,26.73
2022-07-28T06:58:56.015Z,26.76
2022-07-28T07:01:28.470Z,26.80
2022-07-28T07:04:00.995Z,26.83
2022-07-28T07:06:33.499Z,26.87
2022-07-28T07:09:06.033Z,26.90
2022-07-28T07:11:39.214Z,26.93
2022-07-28T07:14:11.385Z,26.96
2022-07-28T07:16:43.961Z,26.93
2022-07-28T07:19:16.554Z,26.88
2022-07-28T07:21:49.111Z,26.89
2022-07-28T07:24:22.442Z,26.96
2022-07-28T07:26:55.533Z,27.03
2022-07-28T07:29:30.488Z,27.09
2022-07-28T07:32:06.930Z,27.13
2022-07-28T07:34:42.956Z,27.18
2022-07-28T07:37:15.369Z,27.22
2022-07-28T07:39:47.750Z,27.27
2022-07-28T07:42:20.465Z,27.28
2022-07-28T07:44:57.449Z,27.34
2022-07-28T07:47:30.062Z,27.44
2022-07-28T07:50:04.293Z,27.53
2022-07-28T07:52:37.382Z,27.61
2022-07-28T07:55:11.265Z,27.64
2022-07-28T07:57:43.703Z,27.66
2022-07-28T08:00:30.545Z,27.70
2022-07-28T08:03:03.166Z,27.75
2022-07-28T08:05:36.397Z,27.77
2022-07-28T08:08:09.047Z,27.82
2022-07-28T08:10:41.744Z,27.87
2022-07-28T08:13:14.251Z,27.90
2022-07-28T08:15:46.896Z,27.93
2022-07-28T08:18:20.697Z,27.96
2022-07-28T08:20:53.080Z,27.99
2022-07-28T08:23:26.391Z,28.04
2022-07-28T08:25:58.749Z,28.05
2022-07-28T08:28:31.225Z,28.08
2022-07-28T08:31:03.774Z,28.12
2022-07-28T08:33:36.321Z,28.17
2022-07-28T08:36:27.069Z,28.26
2022-07-28T08:38:59.572Z,28.33
2022-07-28T08:41:38.627Z,28.40
2022-07-28T08:44:12.268Z,28.41
2022-07-28T08:46:47.733Z,28.43
2022-07-28T08:49:21.384Z,28.46
2022-07-28T08:51:57.224Z,28.46
2022-07-28T08:54:31.611Z,28.47
2022-07-28T08:57:04.990Z,28.46
2022-07-28T08:59:38.280Z,28.46
2022-07-28T09:02:14.009Z,28.47
2022-07-28T09:04:47.432Z,28.48
2022-07-28T09:07:20.365Z,28.47
2022-07-28T09:09:57.422Z,28.42
2022-07-28T09:12:36.791Z,28.41
2022-07-28T09:15:12.229Z,28.41
2022-07-28T09:17:45.553Z,28.40
2022-07-28T09:20:21.377Z,28.35
2022-07-28T09:23:02.748Z,28.30
2022-07-28T09:25:35.994Z,28.23
2022-07-28T09:28:14.528Z,28.22
2022-07-28T09:30:53.946Z,28.20
2022-07-28T09:33:42.004Z,28.24
2022-07-28T09:36:18.423Z,28.27
2022-07-28T09:38:51.097Z,28.32
2022-07-28T09:41:24.124Z,28.36
2022-07-28T09:43:56.751Z,28.42
2022-07-28T09:46:30.974Z,28.50
2022-07-28T09:49:04.087Z,28.63
2022-07-28T09:51:40.329Z,28.78
2022-07-28T09:54:15.183Z,28.94
2022-07-28T09:56:49.416Z,29.10
2022-07-28T09:59:22.452Z,29.22
2022-07-28T10:01:56.698Z,29.32
2022-07-28T10:04:37.453Z,29.40
2022-07-28T10:07:14.016Z,29.50
2022-07-28T10:09:57.433Z,29.58
2022-07-28T10:12:31.469Z,29.68
2022-07-28T10:15:31.475Z,29.80
2022-07-28T10:18:04.144Z,29.90
2022-07-28T10:20:38.565Z,29.95
2022-07-28T10:23:13.710Z,30.04
2022-07-28T10:25:46.756Z,30.04
2022-07-28T10:28:21.837Z,30.06
2022-07-28T10:30:59.117Z,30.07
2022-07-28T10:33:34.189Z,30.08
2022-07-28T10:36:08.392Z,30.18
2022-07-28T10:38:42.027Z,30.31
2022-07-28T10:41:17.274Z,30.42
2022-07-28T10:43:51.248Z,30.53
2022-07-28T10:46:24.773Z,30.68
2022-07-28T10:48:58.069Z,30.83
2022-07-28T10:51:31.259Z,30.93
2022-07-28T10:54:12.274Z,31.01
2022-07-28T10:56:57.117Z,31.01
2022-07-28T11:00:13.379Z,31.11
2022-07-28T11:02:57.247Z,31.22
2022-07-28T11:05:36.751Z,31.35
2022-07-28T11:08:28.068Z,31.46
2022-07-28T11:11:09.076Z,31.52
2022-07-28T11:13:42.225Z,31.57
2022-07-28T11:16:25.088Z,31.55
2022-07-28T11:19:36.546Z,31.58
2022-07-28T11:22:34.264Z,31.56
2022-07-28T11:25:22.234Z,31.63
2022-07-28T11:28:06.087Z,31.69
2022-07-28T11:30:55.859Z,31.71
2022-07-28T11:33:57.703Z,31.76
2022-07-28T11:37:07.459Z,31.79
2022-07-28T11:39:44.080Z,31.73
2022-07-28T11:42:28.913Z,31.69
2022-07-28T11:45:34.271Z,31.60
2022-07-28T11:48:21.706Z,31.52
2022-07-28T11:51:13.632Z,31.47
2022-07-28T11:53:48.594Z,31.48
2022-07-28T11:56:26.622Z,31.60
2022-07-28T11:59:01.681Z,31.78
2022-07-28T12:01:38.519Z,31.89
2022-07-28T12:04:16.160Z,31.94
2022-07-28T12:06:52.368Z,31.95
2022-07-28T12:09:41.357Z,31.91
2022-07-28T12:12:15.469Z,31.96
2022-07-28T12:14:48.171Z,31.94
2022-07-28T12:17:20.678Z,31.85
2022-07-28T12:19:53.130Z,31.71
2022-07-28T12:22:26.799Z,31.66
2022-07-28T12:25:01.220Z,31.71
2022-07-28T12:27:37.668Z,31.79
2022-07-28T12:30:13.116Z,31.92
2022-07-28T12:32:45.662Z,32.10
2022-07-28T12:35:18.305Z,32.26
2022-07-28T12:37:51.984Z,32.29
2022-07-28T12:40:27.493Z,32.37
2022-07-28T12:43:00.169Z,32.47
2022-07-28T12:45:33.476Z,32.60
2022-07-28T12:48:10.577Z,32.55
2022-07-28T12:50:43.082Z,32.58
2022-07-28T12:53:18.305Z,32.69
2022-07-28T12:55:50.615Z,32.90
2022-07-28T12:58:29.003Z,33.13
2022-07-28T13:01:01.756Z,33.49
2022-07-28T13:03:34.291Z,33.77
2022-07-28T13:06:15.229Z,33.90
2022-07-28T13:08:49.276Z,33.87
2022-07-28T13:11:47.408Z,33.76
2022-07-28T13:14:39.345Z,33.76
2022-07-28T13:17:12.157Z,33.93
2022-07-28T13:19:45.588Z,33.87
2022-07-28T13:22:29.049Z,33.82
2022-07-28T13:25:02.050Z,33.83
2022-07-28T13:27:35.786Z,33.86
2022-07-28T13:30:10.982Z,33.82
2022-07-28T13:32:43.390Z,33.78
2022-07-28T13:35:21.686Z,33.76
2022-07-28T13:37:55.048Z,33.66
2022-07-28T13:40:27.695Z,33.61
2022-07-28T13:43:00.031Z,33.65
2022-07-28T13:45:32.626Z,33.79
2022-07-28T13:48:05.536Z,33.67
2022-07-28T13:50:39.419Z,33.44
2022-07-28T13:53:29.592Z,33.40
2022-07-28T13:56:02.157Z,33.43
2022-07-28T13:58:34.927Z,33.62
2022-07-28T14:01:07.827Z,33.86
2022-07-28T14:03:55.405Z,34.07
2022-07-28T14:06:29.925Z,34.29
2022-07-28T14:09:04.213Z,34.25
2022-07-28T14:11:37.270Z,34.18
2022-07-28T14:14:09.694Z,34.04
2022-07-28T14:16:47.472Z,33.97
2022-07-28T14:19:22.998Z,33.93
2022-07-28T14:22:00.581Z,33.86
2022-07-28T14:24:33.186Z,33.83
2022-07-28T14:27:06.210Z,33.74
2022-07-28T14:29:39.034Z,33.71
2022-07-28T14:32:11.462Z,33.58
2022-07-28T14:34:43.841Z,33.43
2022-07-28T14:37:17.508Z,33.27
2022-07-28T14:39:49.865Z,33.09
2022-07-28T14:42:22.440Z,32.96
2022-07-28T14:44:55.007Z,32.97
2022-07-28T14:47:44.517Z,33.14
2022-07-28T14:50:17.436Z,33.33
2022-07-28T14:52:49.795Z,33.44
2022-07-28T14:55:22.388Z,33.49
2022-07-28T14:57:55.289Z,33.40
2022-07-28T15:00:29.641Z,33.35
2022-07-28T15:03:02.233Z,33.42
2022-07-28T15:05:34.796Z,33.47
2022-07-28T15:08:07.622Z,33.43
2022-07-28T15:10:40.409Z,33.35
2022-07-28T15:13:13.138Z,33.35
2022-07-28T15:15:45.601Z,33.31
2022-07-28T15:18:18.214Z,33.29
2022-07-28T15:20:50.708Z,33.14
2022-07-28T15:23:23.377Z,33.03
2022-07-28T15:25:56.274Z,32.96
2022-07-28T15:28:28.871Z,32.86
2022-07-28T15:31:01.661Z,32.75
2022-07-28T15:33:38.921Z,32.66
2022-07-28T15:36:20.877Z,32.54
2022-07-28T15:38:53.555Z,32.38
2022-07-28T15:41:25.845Z,32.26
2022-07-28T15:43:58.586Z,32.12
2022-07-28T15:46:31.088Z,32.06
2022-07-28T15:49:07.694Z,31.99
2022-07-28T15:51:41.457Z,31.96
2022-07-28T15:54:14.346Z,31.95
2022-07-28T15:56:47.102Z,31.94
2022-07-28T15:59:21.473Z,31.93
2022-07-28T16:01:53.944Z,31.88
2022-07-28T16:04:26.631Z,31.84
2022-07-28T16:07:17.409Z,31.77
2022-07-28T16:09:50.188Z,31.67
2022-07-28T16:12:23.263Z,31.55
2022-07-28T16:14:56.239Z,31.46
2022-07-28T16:17:28.667Z,31.39
2022-07-28T16:20:02.989Z,31.30
2022-07-28T16:22:41.228Z,31.21
2022-07-28T16:25:19.986Z,31.15
2022-07-28T16:27:52.818Z,31.12
2022-07-28T16:30:28.525Z,31.06
2022-07-28T16:33:03.785Z,30.95
2022-07-28T16:35:36.489Z,30.86
2022-07-28T16:38:11.799Z,30.81
2022-07-28T16:40:44.440Z,30.79
2022-07-28T16:43:19.198Z,30.74
2022-07-28T16:45:51.576Z,30.64
2022-07-28T16:48:26.840Z,30.55
2022-07-28T16:50:59.597Z,30.49
2022-07-28T16:53:32.202Z,30.43
2022-07-28T16:56:04.757Z,30.38
2022-07-28T16:58:37.857Z,30.31
2022-07-28T17:01:10.394Z,30.21
2022-07-28T17:03:44.926Z,30.14
2022-07-28T17:06:17.400Z,30.09
2022-07-28T17:08:49.873Z,30.06
2022-07-28T17:11:28.278Z,29.98
2022-07-28T17:14:00.866Z,29.89
2022-07-28T17:16:33.968Z,29.82
2022-07-28T17:19:06.728Z,29.76
2022-07-28T17:21:40.031Z,29.67
2022-07-28T17:24:13.914Z,29.56
2022-07-28T17:29:42.728Z,29.38
2022-07-28T17:32:27.097Z,29.28
2022-07-28T17:35:00.868Z,29.17
2022-07-28T17:37:33.578Z,29.09
2022-07-28T17:40:07.402Z,29.03
2022-07-28T17:42:40.717Z,28.92
2022-07-28T17:45:16.082Z,28.83
2022-07-28T17:47:48.619Z,28.77
2022-07-28T17:50:21.476Z,28.69
2022-07-28T17:52:54.562Z,28.60
2022-07-28T17:55:57.551Z,28.52
2022-07-28T17:58:32.238Z,28.43
2022-07-28T18:01:10.119Z,28.36
2022-07-28T18:03:57.841Z,28.29
2022-07-28T18:06:35.383Z,28.21
2022-07-28T18:09:14.496Z,28.14
2022-07-28T18:11:57.652Z,28.09
2022-07-28T18:14:33.826Z,28.04
2022-07-28T18:17:07.674Z,28.01
2022-07-28T18:19:45.262Z,27.99
2022-07-28T18:22:18.119Z,27.96
2022-07-28T18:24:51.032Z,27.95
2022-07-28T18:27:24.154Z,27.95
2022-07-28T18:29:56.584Z,27.94
2022-07-28T18:32:29.041Z,27.92
2022-07-28T18:35:01.991Z,27.89
2022-07-28T18:37:34.513Z,27.86
2022-07-28T18:40:10.980Z,27.78
2022-07-28T18:42:43.633Z,27.71
2022-07-28T18:45:21.790Z,27.68
2022-07-28T18:47:58.842Z,27.63
2022-07-28T18:50:35.774Z,27.54
2022-07-28T18:53:13.163Z,27.45
2022-07-28T18:55:46.517Z,27.38
2022-07-28T18:58:18.741Z,27.33
2022-07-28T19:00:51.895Z,27.26
2022-07-28T19:03:24.136Z,27.18
2022-07-28T19:05:56.920Z,27.12
2022-07-28T19:08:29.401Z,27.06
2022-07-28T19:11:01.985Z,27.01
2022-07-28T19:13:34.417Z,26.94
2022-07-28T19:16:07.285Z,26.92
2022-07-28T19:18:39.616Z,26.92
2022-07-28T19:21:12.296Z,26.90
2022-07-28T19:23:44.517Z,26.85
2022-07-28T19:26:17.171Z,26.82
2022-07-28T19:28:49.651Z,26.78
2022-07-28T19:31:22.284Z,26.77
2022-07-28T19:33:55.973Z,26.73
2022-07-28T19:36:29.229Z,26.68
2022-07-28T19:39:01.474Z,26.63
2022-07-28T19:41:34.443Z,26.60
2022-07-28T19:44:07.156Z,26.53
2022-07-28T19:46:39.885Z,26.47
2022-07-28T19:49:13.314Z,26.43
2022-07-28T19:51:46.091Z,26.38
2022-07-28T19:54:21.180Z,26.32
2022-07-28T19:56:54.395Z,26.26
2022-07-28T19:59:27.883Z,26.20
2022-07-28T20:02:00.679Z,26.15
2022-07-28T20:04:33.026Z,26.14
2022-07-28T20:07:05.873Z,26.11
2022-07-28T20:09:38.783Z,26.04
2022-07-28T20:12:11.419Z,26.01
2022-07-28T20:14:44.340Z,25.99
2022-07-28T20:17:35.994Z,25.93
2022-07-28T20:20:11.791Z,25.90
2022-07-28T20:22:46.274Z,25.88
2022-07-28T20:25:18.841Z,25.88
2022-07-28T20:27:51.663Z,25.90
2022-07-28T20:30:24.355Z,25.93
2022-07-28T20:32:57.074Z,25.98
2022-07-28T20:35:30.456Z,26.04
2022-07-28T20:38:07.619Z,26.10
2022-07-28T20:40:40.082Z,26.14
2022-07-28T20:43:12.808Z,26.15
2022-07-28T20:45:45.815Z,26.17
2022-07-28T20:48:33.820Z,26.21
2022-07-28T20:51:06.203Z,26.27
2022-07-28T20:53:38.786Z,26.32
2022-07-28T20:56:11.500Z,26.36
2022-07-28T20:58:44.023Z,26.38
2022-07-28T21:01:17.395Z,26.40
2022-07-28T21:03:54.203Z,26.40
2022-07-28T21:06:27.699Z,26.41
2022-07-28T21:09:02.114Z,26.42
2022-07-28T21:11:34.957Z,26.44
2022-07-28T21:14:08.803Z,26.44
2022-07-28T21:16:43.527Z,26.38
2022-07-28T21:19:16.357Z,26.39
2022-07-28T21:21:48.938Z,26.39
2022-07-28T21:24:21.668Z,26.32
2022-07-28T21:26:54.255Z,26.27
2022-07-28T21:29:27.177Z,26.24
2022-07-28T21:32:05.498Z,26.25
2022-07-28T21:34:39.489Z,26.26
2022-07-28T21:37:13.226Z,26.29
2022-07-28T21:39:46.175Z,26.27
2022-07-28T21:42:19.077Z,26.22
2022-07-28T21:44:52.079Z,26.19
2022-07-28T21:47:24.847Z,26.22
2022-07-28T21:49:58.799Z,26.23
2022-07-28T21:52:31.378Z,26.25
2022-07-28T21:55:05.053Z,26.23
2022-07-28T21:57:38.443Z,26.24
2022-07-28T22:00:14.267Z,26.22
2022-07-28T22:02:46.799Z,26.24
2022-07-28T22:05:19.741Z,26.25
2022-07-28T22:07:52.598Z,26.27
2022-07-28T22:10:26.239Z,26.30
2022-07-28T22:12:59.821Z,26.32
2022-07-28T22:15:33.179Z,26.35
2022-07-28T22:18:06.463Z,26.36
2022-07-28T22:20:39.197Z,26.32
2022-07-28T22:23:29.247Z,26.27
2022-07-28T22:26:04.569Z,26.23
2022-07-28T22:28:41.465Z,26.20
2022-07-28T22:31:14.203Z,26.14
2022-07-28T22:33:46.773Z,26.12
2022-07-28T22:36:19.475Z,26.13
2022-07-28T22:38:56.831Z,26.14
2022-07-28T22:41:30.228Z,26.17
2022-07-28T22:44:03.126Z,26.14
2022-07-28T22:46:36.579Z,26.11
2022-07-28T22:49:10.428Z,26.14
2022-07-28T22:51:47.998Z,26.17
2022-07-28T22:54:19.366Z,26.13
2022-07-28T22:56:52.161Z,26.10
2022-07-28T22:59:25.195Z,26.07
2022-07-28T23:01:58.280Z,26.02
2022-07-28T23:04:31.655Z,26.03
2022-07-28T23:07:04.738Z,26.07
2022-07-28T23:09:45.310Z,26.08
2022-07-28T23:12:19.586Z,26.07
2022-07-28T23:14:52.299Z,26.02
2022-07-28T23:17:26.359Z,25.99
2022-07-28T23:20:02.042Z,25.96
2022-07-28T23:22:34.842Z,25.94
2022-07-28T23:25:08.892Z,25.94
2022-07-28T23:27:41.595Z,25.94
2022-07-28T23:30:16.578Z,25.93
2022-07-28T23:32:52.748Z,25.92
2022-07-28T23:35:25.704Z,25.92
2022-07-28T23:37:58.805Z,25.90
2022-07-28T23:40:31.847Z,25.90
2022-07-28T23:43:04.774Z,25.93
2022-07-28T23:45:37.583Z,25.97
2022-07-28T23:48:10.906Z,26.00
2022-07-28T23:50:43.331Z,26.03
2022-07-28T23:53:17.230Z,26.06
2022-07-28T23:55:50.065Z,26.09
2022-07-28T23:58:23.282Z,26.11
